Aviation Digital Data Service (ADDS)

Output produced by METARs form (1642 UTC 30 March 2017)
found at http://aviationweather.gov/adds/metars/
 
KISO 301427Z 3014/3112 05010KT P6SM BKN080 
     FM301800 11010KT P6SM SCT030 BKN060 
     FM310200 12005KT P6SM BKN080 
     FM310900 15010KT 6SM -SHRA OVC025 AMD LTD TO CLD VIS AND WIND